createdAt,value
2024-03-08T00:01:29.483Z,17.70
2024-03-08T00:03:04.376Z,17.83
2024-03-08T00:04:37.666Z,16.02
2024-03-08T00:06:12.892Z,17.23
2024-03-08T00:07:46.232Z,16.60
2024-03-08T00:09:23.335Z,16.73
2024-03-08T00:10:56.386Z,16.83
2024-03-08T00:12:30.866Z,16.90
2024-03-08T00:14:07.728Z,16.00
2024-03-08T00:15:42.504Z,18.13
2024-03-08T00:17:16.976Z,17.85
2024-03-08T00:18:51.587Z,17.25
2024-03-08T00:20:24.673Z,17.25
2024-03-08T00:21:58.737Z,16.58
2024-03-08T00:23:31.606Z,16.88
2024-03-08T00:25:06.846Z,17.73
2024-03-08T00:26:39.945Z,19.05
2024-03-08T00:28:16.208Z,18.13
2024-03-08T00:29:49.435Z,19.42
2024-03-08T00:31:25.261Z,17.08
2024-03-08T00:32:59.229Z,15.38
2024-03-08T00:34:32.846Z,18.35
2024-03-08T00:36:08.557Z,18.48
2024-03-08T00:37:43.385Z,18.60
2024-03-08T00:39:17.818Z,19.17
2024-03-08T00:40:50.717Z,19.42
2024-03-08T00:42:25.620Z,18.35
2024-03-08T00:44:00.268Z,19.20
2024-03-08T00:45:33.508Z,18.00
2024-03-08T00:47:09.381Z,17.98
2024-03-08T00:48:44.610Z,17.85
2024-03-08T00:50:19.584Z,17.42
2024-03-08T00:51:52.629Z,18.05
2024-03-08T00:53:26.752Z,17.33
2024-03-08T00:55:00.798Z,17.65
2024-03-08T00:56:35.646Z,17.67
2024-03-08T00:58:10.412Z,18.65
2024-03-08T00:59:43.516Z,16.95
2024-03-08T01:01:17.957Z,18.92
2024-03-08T01:02:53.325Z,17.08
2024-03-08T01:04:30.076Z,17.90
2024-03-08T01:06:04.491Z,16.33
2024-03-08T01:07:38.708Z,17.00
2024-03-08T01:09:12.024Z,16.17
2024-03-08T01:10:46.568Z,15.93
2024-03-08T01:12:19.791Z,17.60
2024-03-08T01:13:56.069Z,14.80
2024-03-08T01:15:30.547Z,17.20
2024-03-08T01:17:03.459Z,16.25
2024-03-08T01:18:38.848Z,17.05
2024-03-08T01:20:13.654Z,19.13
2024-03-08T01:21:48.143Z,18.48
2024-03-08T01:23:21.096Z,16.48
2024-03-08T01:24:55.285Z,17.77
2024-03-08T01:26:28.253Z,16.80
2024-03-08T01:28:02.626Z,17.63
2024-03-08T01:29:35.562Z,18.33
2024-03-08T01:31:09.755Z,18.48
2024-03-08T01:32:43.732Z,17.17
2024-03-08T01:34:19.612Z,16.27
2024-03-08T01:35:53.753Z,18.58
2024-03-08T01:37:26.652Z,18.75
2024-03-08T01:39:00.518Z,18.30
2024-03-08T01:40:34.867Z,18.88
2024-03-08T01:42:08.133Z,17.45
2024-03-08T01:43:42.070Z,18.75
2024-03-08T01:45:15.013Z,18.52
2024-03-08T01:46:50.245Z,19.08
2024-03-08T01:48:25.088Z,17.25
2024-03-08T01:50:01.012Z,18.02
2024-03-08T01:51:34.190Z,17.08
2024-03-08T01:53:08.935Z,17.25
2024-03-08T01:54:43.151Z,17.73
2024-03-08T01:56:16.224Z,17.83
2024-03-08T01:57:50.547Z,17.30
2024-03-08T01:59:23.897Z,18.25
2024-03-08T02:00:59.321Z,17.40
2024-03-08T02:02:34.889Z,18.35
2024-03-08T02:04:09.293Z,18.30
2024-03-08T02:05:45.114Z,17.48
2024-03-08T02:07:19.039Z,17.42
2024-03-08T02:08:52.591Z,17.92
2024-03-08T02:10:26.492Z,17.45
2024-03-08T02:11:59.835Z,17.80
2024-03-08T02:13:34.017Z,18.48
2024-03-08T02:15:08.019Z,16.70
2024-03-08T02:16:41.996Z,18.88
2024-03-08T02:18:15.859Z,18.13
2024-03-08T02:19:49.830Z,18.23
2024-03-08T02:21:24.107Z,17.92
2024-03-08T02:22:57.951Z,18.50
2024-03-08T02:24:31.982Z,19.08
2024-03-08T02:26:06.715Z,18.52
2024-03-08T02:27:42.323Z,18.05
2024-03-08T02:29:17.134Z,19.85
2024-03-08T02:30:50.985Z,16.90
2024-03-08T02:32:25.330Z,18.15
2024-03-08T02:34:00.744Z,18.45
2024-03-08T02:35:34.040Z,16.27
2024-03-08T02:37:10.135Z,18.83
2024-03-08T02:38:43.034Z,18.27
2024-03-08T02:40:17.733Z,18.55
2024-03-08T02:41:50.718Z,18.30
2024-03-08T02:43:26.249Z,17.52
2024-03-08T02:44:59.626Z,18.70
2024-03-08T02:46:33.638Z,17.63
2024-03-08T02:48:07.785Z,17.80
2024-03-08T02:49:42.202Z,18.33
2024-03-08T02:51:17.387Z,17.92
2024-03-08T02:52:51.844Z,18.08
2024-03-08T02:54:25.985Z,19.92
2024-03-08T02:55:59.612Z,17.25
2024-03-08T02:57:33.600Z,17.08
2024-03-08T02:59:06.696Z,19.20
2024-03-08T03:00:42.101Z,15.70
2024-03-08T03:02:15.583Z,16.75
2024-03-08T03:03:49.501Z,19.25
2024-03-08T03:05:22.558Z,17.80
2024-03-08T03:06:57.097Z,18.33
2024-03-08T03:08:32.128Z,16.38
2024-03-08T03:10:08.213Z,17.13
2024-03-08T03:11:42.098Z,18.50
2024-03-08T03:13:15.463Z,17.63
2024-03-08T03:14:50.118Z,18.85
2024-03-08T03:16:24.027Z,16.45
2024-03-08T03:17:57.982Z,17.88
2024-03-08T03:19:31.320Z,19.75
2024-03-08T03:21:09.226Z,18.05
2024-03-08T03:22:42.613Z,19.20
2024-03-08T03:24:19.124Z,18.13
2024-03-08T03:25:53.349Z,17.45
2024-03-08T03:27:27.600Z,18.15
2024-03-08T03:29:01.836Z,20.20
2024-03-08T03:30:35.907Z,18.63
2024-03-08T03:32:08.954Z,18.63
2024-03-08T03:33:43.401Z,18.38
2024-03-08T03:35:17.028Z,16.52
2024-03-08T03:36:50.955Z,20.08
2024-03-08T03:38:24.950Z,18.63
2024-03-08T03:40:00.940Z,17.85
2024-03-08T03:41:33.929Z,17.10
2024-03-08T03:43:08.301Z,17.65
2024-03-08T03:44:41.339Z,17.70
2024-03-08T03:46:15.687Z,18.10
2024-03-08T03:47:48.665Z,16.80
2024-03-08T03:49:22.778Z,17.35
2024-03-08T03:50:56.920Z,18.30
2024-03-08T03:52:30.138Z,18.58
2024-03-08T03:54:05.031Z,17.48
2024-03-08T03:55:41.664Z,19.27
2024-03-08T03:57:15.077Z,20.10
2024-03-08T03:58:50.475Z,18.58
2024-03-08T04:00:23.536Z,18.48
2024-03-08T04:01:57.674Z,18.23
2024-03-08T04:03:30.600Z,18.30
2024-03-08T04:05:05.449Z,18.35
2024-03-08T04:06:39.389Z,17.67
2024-03-08T04:08:12.736Z,18.40
2024-03-08T04:09:46.628Z,19.95
2024-03-08T04:11:22.516Z,17.92
2024-03-08T04:12:57.955Z,17.60
2024-03-08T04:14:30.957Z,18.60
2024-03-08T04:16:09.020Z,21.13
2024-03-08T04:17:42.508Z,19.45
2024-03-08T04:19:16.579Z,20.88
2024-03-08T04:20:49.667Z,20.55
2024-03-08T04:22:23.710Z,20.42
2024-03-08T04:23:58.119Z,22.05
2024-03-08T04:25:32.052Z,20.42
2024-03-08T04:27:06.606Z,19.80
2024-03-08T04:28:40.897Z,18.70
2024-03-08T04:30:14.706Z,19.27
2024-03-08T04:31:48.690Z,20.50
2024-03-08T04:33:22.821Z,18.10
2024-03-08T04:34:56.947Z,20.15
2024-03-08T04:36:30.232Z,19.75
2024-03-08T04:38:06.478Z,19.77
2024-03-08T04:39:39.744Z,19.38
2024-03-08T04:41:13.890Z,18.73
2024-03-08T04:42:50.240Z,18.77
2024-03-08T04:44:25.512Z,20.35
2024-03-08T04:45:59.476Z,21.77
2024-03-08T04:47:33.552Z,20.40
2024-03-08T04:49:08.632Z,19.70
2024-03-08T04:50:42.498Z,21.55
2024-03-08T04:52:15.793Z,20.35
2024-03-08T04:53:49.832Z,20.55
2024-03-08T04:55:23.393Z,20.63
2024-03-08T04:56:57.393Z,21.15
2024-03-08T04:58:31.698Z,22.15
2024-03-08T05:00:12.092Z,22.95
2024-03-08T05:01:45.497Z,24.33
2024-03-08T05:03:19.463Z,23.05
2024-03-08T05:04:52.576Z,25.88
2024-03-08T05:06:26.417Z,24.80
2024-03-08T05:07:59.807Z,26.38
2024-03-08T05:09:34.974Z,26.05
2024-03-08T05:11:08.595Z,23.95
2024-03-08T05:12:42.594Z,24.63
2024-03-08T05:14:18.466Z,25.92
2024-03-08T05:15:52.496Z,26.20
2024-03-08T05:17:25.339Z,23.20
2024-03-08T05:19:00.527Z,26.08
2024-03-08T05:20:34.035Z,24.92
2024-03-08T05:22:08.000Z,25.27
2024-03-08T05:23:41.068Z,23.98
2024-03-08T05:25:15.334Z,24.63
2024-03-08T05:26:49.313Z,25.40
2024-03-08T05:28:23.354Z,26.23
2024-03-08T05:29:57.930Z,26.13
2024-03-08T05:31:38.484Z,26.15
2024-03-08T05:33:11.938Z,25.58
2024-03-08T05:34:45.845Z,26.58
2024-03-08T05:36:18.859Z,24.55
2024-03-08T05:37:52.886Z,24.58
2024-03-08T05:39:26.487Z,26.17
2024-03-08T05:41:00.585Z,26.02
2024-03-08T05:42:33.898Z,25.70
2024-03-08T05:44:08.169Z,26.33
2024-03-08T05:45:42.837Z,26.23
2024-03-08T05:47:17.117Z,26.85
2024-03-08T05:48:50.389Z,25.13
2024-03-08T05:50:24.552Z,25.60
2024-03-08T05:51:57.989Z,27.35
2024-03-08T05:53:32.782Z,25.63
2024-03-08T05:55:08.535Z,27.15
2024-03-08T05:56:44.701Z,24.48
2024-03-08T05:58:18.568Z,25.95
2024-03-08T05:59:52.957Z,25.40
2024-03-08T06:01:28.568Z,25.58
2024-03-08T06:03:01.649Z,25.00
2024-03-08T06:04:36.024Z,24.83
2024-03-08T06:06:09.195Z,26.50
2024-03-08T06:07:43.519Z,25.73
2024-03-08T06:09:24.151Z,24.60
2024-03-08T06:11:00.838Z,26.13
2024-03-08T06:12:38.203Z,23.10
2024-03-08T06:14:12.325Z,23.85
2024-03-08T06:15:46.594Z,24.48
2024-03-08T06:17:21.385Z,23.30
2024-03-08T06:18:56.492Z,24.13
2024-03-08T06:20:29.726Z,22.60
2024-03-08T06:22:06.751Z,24.02
2024-03-08T06:23:41.586Z,24.33
2024-03-08T06:25:16.038Z,24.67
2024-03-08T06:26:50.067Z,22.38
2024-03-08T06:28:24.113Z,22.70
2024-03-08T06:29:57.535Z,23.02
2024-03-08T06:31:31.611Z,22.85
2024-03-08T06:33:08.318Z,23.08
2024-03-08T06:34:41.306Z,23.23
2024-03-08T06:36:16.363Z,22.73
2024-03-08T06:37:49.655Z,22.85
2024-03-08T06:39:26.292Z,21.25
2024-03-08T06:40:59.718Z,21.45
2024-03-08T06:42:36.588Z,21.08
2024-03-08T06:44:10.306Z,21.95
2024-03-08T06:45:49.908Z,22.35
2024-03-08T06:47:24.022Z,22.88
2024-03-08T06:49:00.161Z,20.50
2024-03-08T06:50:33.314Z,21.77
2024-03-08T06:52:10.234Z,21.83
2024-03-08T06:53:43.524Z,23.35
2024-03-08T06:55:18.822Z,22.95
2024-03-08T06:56:52.070Z,21.08
2024-03-08T06:58:26.221Z,20.58
2024-03-08T06:59:59.302Z,22.50
2024-03-08T07:01:36.347Z,21.75
2024-03-08T07:03:13.662Z,22.95
2024-03-08T07:04:48.276Z,19.77
2024-03-08T07:06:22.431Z,20.42
2024-03-08T07:07:56.369Z,21.50
2024-03-08T07:09:30.429Z,22.55
2024-03-08T07:11:05.198Z,21.77
2024-03-08T07:12:38.326Z,21.35
2024-03-08T07:14:12.743Z,19.20
2024-03-08T07:15:46.695Z,20.67
2024-03-08T07:17:20.702Z,19.52
2024-03-08T07:18:53.965Z,20.10
2024-03-08T07:20:30.457Z,21.77
2024-03-08T07:22:04.848Z,20.40
2024-03-08T07:23:55.820Z,19.75
2024-03-08T07:25:31.251Z,19.75
2024-03-08T07:27:06.550Z,21.05
2024-03-08T07:28:40.917Z,21.23
2024-03-08T07:30:14.438Z,20.27
2024-03-08T07:31:57.875Z,20.98
2024-03-08T07:33:32.115Z,20.17
2024-03-08T07:35:07.064Z,19.90
2024-03-08T07:36:41.704Z,19.60
2024-03-08T07:38:16.173Z,21.00
2024-03-08T07:39:49.537Z,21.40
2024-03-08T07:41:24.412Z,20.27
2024-03-08T07:42:57.880Z,19.10
2024-03-08T07:44:33.568Z,19.75
2024-03-08T07:46:07.030Z,19.73
2024-03-08T07:47:41.323Z,19.17
2024-03-08T07:49:15.212Z,20.40
2024-03-08T07:50:51.504Z,20.55
2024-03-08T07:52:27.167Z,19.33
2024-03-08T07:54:01.391Z,19.80
2024-03-08T07:55:34.680Z,19.80
2024-03-08T07:57:10.235Z,21.58
2024-03-08T07:58:44.059Z,20.80
2024-03-08T08:00:19.858Z,21.92
2024-03-08T08:01:55.436Z,21.35
2024-03-08T08:03:29.904Z,19.60
2024-03-08T08:05:03.086Z,21.63
2024-03-08T08:06:39.272Z,21.42
2024-03-08T08:08:13.673Z,22.23
2024-03-08T08:09:48.197Z,21.17
2024-03-08T08:11:21.511Z,21.27
2024-03-08T08:12:55.480Z,21.10
2024-03-08T08:14:28.428Z,21.52
2024-03-08T08:16:02.657Z,21.80
2024-03-08T08:17:36.017Z,20.10
2024-03-08T08:19:15.072Z,20.67
2024-03-08T08:20:48.503Z,21.25
2024-03-08T08:22:23.183Z,21.83
2024-03-08T08:23:57.699Z,21.13
2024-03-08T08:25:32.481Z,21.02
2024-03-08T08:27:05.673Z,23.85
2024-03-08T08:28:42.589Z,20.40
2024-03-08T08:30:16.132Z,18.73
2024-03-08T08:31:51.100Z,18.55
2024-03-08T08:33:26.822Z,20.13
2024-03-08T08:35:01.396Z,19.58
2024-03-08T08:36:35.632Z,20.00
2024-03-08T08:38:08.704Z,20.35
2024-03-08T08:39:44.224Z,20.90
2024-03-08T08:41:19.412Z,18.95
2024-03-08T08:42:53.940Z,20.35
2024-03-08T08:44:27.301Z,20.02
2024-03-08T08:46:02.335Z,17.95
2024-03-08T08:47:36.308Z,19.95
2024-03-08T08:49:11.812Z,18.80
2024-03-08T08:50:46.192Z,20.15
2024-03-08T08:52:20.891Z,21.02
2024-03-08T08:53:54.775Z,20.40
2024-03-08T08:55:32.748Z,19.40
2024-03-08T08:57:08.913Z,19.00
2024-03-08T08:58:43.630Z,22.08
2024-03-08T09:00:17.967Z,19.33
2024-03-08T09:01:54.978Z,19.10
2024-03-08T09:03:30.872Z,19.67
2024-03-08T09:05:04.509Z,18.00
2024-03-08T09:06:39.320Z,19.73
2024-03-08T09:08:12.401Z,20.45
2024-03-08T09:09:46.695Z,17.95
2024-03-08T09:11:21.451Z,17.52
2024-03-08T09:12:56.405Z,19.00
2024-03-08T09:14:29.363Z,17.88
2024-03-08T09:16:06.242Z,20.02
2024-03-08T09:17:40.975Z,18.75
2024-03-08T09:19:15.740Z,17.77
2024-03-08T09:20:49.979Z,19.10
2024-03-08T09:22:23.618Z,19.00
2024-03-08T09:23:57.601Z,19.35
2024-03-08T09:25:32.512Z,19.17
2024-03-08T09:27:10.850Z,19.58
2024-03-08T09:28:44.684Z,18.63
2024-03-08T09:30:17.725Z,19.05
2024-03-08T09:31:52.889Z,18.63
2024-03-08T09:33:26.039Z,16.77
2024-03-08T09:35:01.986Z,18.38
2024-03-08T09:36:35.084Z,17.33
2024-03-08T09:38:14.597Z,17.00
2024-03-08T09:39:47.828Z,19.15
2024-03-08T09:41:21.885Z,17.73
2024-03-08T09:42:56.779Z,16.75
2024-03-08T09:44:31.416Z,17.25
2024-03-08T09:46:05.605Z,18.42
2024-03-08T09:47:42.808Z,17.90
2024-03-08T09:49:15.814Z,17.25
2024-03-08T09:50:51.108Z,17.67
2024-03-08T09:52:24.218Z,19.38
2024-03-08T09:54:02.835Z,17.55
2024-03-08T09:55:38.598Z,17.63
2024-03-08T09:57:13.565Z,15.95
2024-03-08T09:59:09.183Z,17.10
2024-03-08T10:00:43.562Z,17.88
2024-03-08T10:02:17.983Z,17.25
2024-03-08T10:03:56.160Z,18.65
2024-03-08T10:05:29.511Z,16.70
2024-03-08T10:07:04.179Z,17.30
2024-03-08T10:08:39.245Z,18.38
2024-03-08T10:10:13.448Z,18.27
2024-03-08T10:11:47.976Z,17.20
2024-03-08T10:13:21.231Z,18.90
2024-03-08T10:15:01.446Z,18.02
2024-03-08T10:16:35.272Z,18.10
2024-03-08T10:18:09.970Z,18.08
2024-03-08T10:19:52.021Z,18.02
2024-03-08T10:21:26.435Z,16.67
2024-03-08T10:23:07.496Z,18.55
2024-03-08T10:24:48.045Z,16.58
2024-03-08T10:26:22.917Z,17.05
2024-03-08T10:27:58.188Z,19.00
2024-03-08T10:29:32.376Z,16.15
2024-03-08T10:31:08.151Z,16.60
2024-03-08T10:32:42.436Z,15.75
2024-03-08T10:34:17.677Z,14.60
2024-03-08T10:35:51.343Z,16.58
2024-03-08T10:37:26.084Z,15.82
2024-03-08T10:39:02.652Z,16.70
2024-03-08T10:40:41.310Z,15.02
2024-03-08T10:42:19.538Z,15.43
2024-03-08T10:44:14.091Z,17.40
2024-03-08T10:45:50.228Z,16.35
2024-03-08T10:47:31.849Z,15.27
2024-03-08T10:49:09.300Z,15.80
2024-03-08T10:50:46.449Z,15.45
2024-03-08T10:52:20.725Z,15.25
2024-03-08T10:53:56.622Z,15.68
2024-03-08T10:55:29.881Z,16.13
2024-03-08T10:57:06.634Z,17.42
2024-03-08T10:58:41.364Z,15.70
2024-03-08T11:00:17.604Z,15.60
2024-03-08T11:01:52.200Z,14.35
2024-03-08T11:03:54.989Z,14.27
2024-03-08T11:05:40.879Z,15.50
2024-03-08T11:07:18.981Z,14.43
2024-03-08T11:08:52.109Z,16.30
2024-03-08T11:10:28.368Z,14.50
2024-03-08T11:12:26.606Z,13.95
2024-03-08T11:14:00.505Z,13.57
2024-03-08T11:15:35.075Z,14.15
2024-03-08T11:17:08.292Z,16.48
2024-03-08T11:18:44.295Z,15.50
2024-03-08T11:20:22.063Z,14.45
2024-03-08T11:22:04.315Z,14.07
2024-03-08T11:23:37.762Z,15.43
2024-03-08T11:25:12.133Z,13.75
2024-03-08T11:26:47.907Z,13.38
2024-03-08T11:28:23.681Z,14.50
2024-03-08T11:30:17.100Z,13.02
2024-03-08T11:31:52.991Z,15.75
2024-03-08T11:33:30.040Z,13.60
2024-03-08T11:35:06.827Z,13.60
2024-03-08T11:36:44.787Z,13.50
2024-03-08T11:38:20.396Z,14.02
2024-03-08T11:40:00.569Z,13.95
2024-03-08T11:41:35.288Z,13.63
2024-03-08T11:43:08.769Z,13.52
2024-03-08T11:44:45.625Z,14.07
2024-03-08T11:46:19.780Z,13.82
2024-03-08T11:47:58.743Z,13.35
2024-03-08T11:49:34.498Z,12.60
2024-03-08T11:51:09.322Z,13.82
2024-03-08T11:52:46.484Z,12.07
2024-03-08T11:54:19.758Z,14.90
2024-03-08T11:55:53.946Z,13.23
2024-03-08T11:57:27.631Z,12.65
2024-03-08T11:59:03.395Z,11.95
2024-03-08T12:00:37.029Z,12.75
2024-03-08T12:02:12.213Z,13.75
2024-03-08T12:03:45.639Z,12.82
2024-03-08T12:05:22.580Z,10.93
2024-03-08T12:06:55.523Z,12.40
2024-03-08T12:08:32.277Z,11.50
2024-03-08T12:10:24.140Z,11.60
2024-03-08T12:11:58.395Z,13.18
2024-03-08T12:13:35.127Z,12.13
2024-03-08T12:15:12.530Z,10.38
2024-03-08T12:16:46.186Z,11.60
2024-03-08T12:18:20.123Z,11.98
2024-03-08T12:19:55.915Z,12.35
2024-03-08T12:21:30.676Z,11.48
2024-03-08T12:23:04.472Z,10.80
2024-03-08T12:24:42.411Z,11.68
2024-03-08T12:26:17.141Z,9.77
2024-03-08T12:27:53.481Z,9.75
2024-03-08T12:29:28.816Z,11.50
2024-03-08T12:31:03.460Z,11.63
2024-03-08T12:32:37.060Z,11.15
2024-03-08T12:34:11.373Z,9.45
2024-03-08T12:35:55.940Z,10.80
2024-03-08T12:37:30.747Z,10.93
2024-03-08T12:39:05.038Z,10.75
2024-03-08T12:40:43.299Z,11.05
2024-03-08T12:42:16.882Z,11.10
2024-03-08T12:43:51.213Z,9.77
2024-03-08T12:45:25.255Z,11.60
2024-03-08T12:47:00.432Z,10.85
2024-03-08T12:48:36.736Z,10.35
2024-03-08T12:50:12.000Z,11.45
2024-03-08T12:51:45.225Z,10.35
2024-03-08T12:53:19.235Z,11.25
2024-03-08T12:54:53.265Z,11.30
2024-03-08T12:56:34.532Z,11.15
2024-03-08T12:58:08.705Z,9.95
2024-03-08T12:59:43.922Z,10.95
2024-03-08T13:01:18.826Z,11.82
2024-03-08T13:02:53.285Z,10.02
2024-03-08T13:04:27.009Z,10.50
2024-03-08T13:06:01.246Z,11.75
2024-03-08T13:07:35.021Z,10.10
2024-03-08T13:09:09.036Z,11.00
2024-03-08T13:10:44.675Z,10.45
2024-03-08T13:12:21.222Z,13.05
2024-03-08T13:13:55.639Z,11.73
2024-03-08T13:15:30.802Z,10.48
2024-03-08T13:17:05.342Z,11.38
2024-03-08T13:18:38.662Z,11.02
2024-03-08T13:20:24.845Z,11.27
2024-03-08T13:22:05.772Z,12.02
2024-03-08T13:23:41.660Z,10.43
2024-03-08T13:25:15.199Z,11.30
2024-03-08T13:26:51.596Z,9.77
2024-03-08T13:28:31.107Z,9.65
2024-03-08T13:30:05.837Z,10.45
2024-03-08T13:31:40.920Z,10.20
2024-03-08T13:33:15.321Z,10.10
2024-03-08T13:34:52.060Z,9.95
2024-03-08T13:36:30.436Z,10.77
2024-03-08T13:38:04.576Z,10.93
2024-03-08T13:39:44.889Z,9.93
2024-03-08T13:41:21.568Z,9.70
2024-03-08T13:42:55.610Z,8.68
2024-03-08T13:44:30.281Z,9.57
2024-03-08T13:46:05.941Z,10.50
2024-03-08T13:47:40.532Z,9.70
2024-03-08T13:49:14.784Z,9.80
2024-03-08T13:50:47.812Z,9.32
2024-03-08T13:52:22.018Z,8.75
2024-03-08T13:53:55.402Z,8.60
2024-03-08T13:55:29.338Z,8.55
2024-03-08T13:57:04.800Z,8.98
2024-03-08T13:58:39.244Z,8.02
2024-03-08T14:00:15.481Z,8.02
2024-03-08T14:01:50.134Z,7.40
2024-03-08T14:03:24.839Z,7.80
2024-03-08T14:05:03.297Z,8.68
2024-03-08T14:08:13.151Z,8.60
2024-03-08T14:09:45.930Z,10.35
2024-03-08T14:11:20.897Z,9.85
2024-03-08T14:12:53.951Z,9.98
2024-03-08T14:14:27.665Z,9.50
2024-03-08T14:16:01.982Z,9.60
2024-03-08T14:17:37.199Z,9.60
2024-03-08T14:19:11.059Z,10.20
2024-03-08T14:20:45.426Z,10.70
2024-03-08T14:22:18.733Z,10.45
2024-03-08T14:23:53.683Z,9.50
2024-03-08T14:25:27.353Z,9.85
2024-03-08T14:27:01.553Z,10.13
2024-03-08T14:28:34.685Z,9.50
2024-03-08T14:30:11.942Z,10.27
2024-03-08T14:31:47.199Z,9.52
2024-03-08T14:33:20.296Z,9.63
2024-03-08T14:34:56.259Z,11.07
2024-03-08T14:36:29.717Z,10.95
2024-03-08T14:38:03.941Z,9.35
2024-03-08T14:39:36.955Z,9.57
2024-03-08T14:41:11.017Z,8.88
2024-03-08T14:42:44.114Z,9.43
2024-03-08T14:44:19.848Z,9.73
2024-03-08T14:45:53.881Z,8.95
2024-03-08T14:47:28.210Z,10.13
2024-03-08T14:49:02.522Z,9.00
2024-03-08T14:50:38.027Z,9.63
2024-03-08T14:52:28.303Z,9.88
2024-03-08T14:54:03.524Z,10.57
2024-03-08T14:55:36.778Z,9.68
2024-03-08T14:57:10.648Z,9.55
2024-03-08T14:58:44.971Z,8.70
2024-03-08T15:00:28.415Z,8.63
2024-03-08T15:02:02.882Z,9.50
2024-03-08T15:03:39.600Z,9.40
2024-03-08T15:05:12.829Z,9.05
2024-03-08T15:06:50.759Z,8.85
2024-03-08T15:08:26.707Z,8.40
2024-03-08T15:10:00.777Z,8.75
2024-03-08T15:11:35.766Z,7.95
2024-03-08T15:13:16.500Z,8.60
2024-03-08T15:14:52.348Z,8.65
2024-03-08T15:16:26.318Z,8.52
2024-03-08T15:18:00.419Z,8.25
2024-03-08T15:19:36.153Z,8.70
2024-03-08T15:21:10.235Z,8.18
2024-03-08T15:22:44.577Z,9.07
2024-03-08T15:24:22.200Z,8.90
2024-03-08T15:25:56.056Z,8.30
2024-03-08T15:27:30.372Z,10.20
2024-03-08T15:29:03.404Z,9.35
2024-03-08T15:30:37.413Z,8.48
2024-03-08T15:32:15.895Z,9.45
2024-03-08T15:33:52.969Z,9.52
2024-03-08T15:35:27.596Z,9.80
2024-03-08T15:37:04.317Z,9.02
2024-03-08T15:38:38.267Z,8.13
2024-03-08T15:40:21.975Z,9.65
2024-03-08T15:41:56.375Z,8.48
2024-03-08T15:43:30.618Z,8.55
2024-03-08T15:45:05.264Z,9.13
2024-03-08T15:46:40.838Z,8.15
2024-03-08T15:48:13.973Z,8.73
2024-03-08T15:49:48.129Z,9.50
2024-03-08T15:51:24.084Z,8.80
2024-03-08T15:52:57.123Z,9.68
2024-03-08T15:54:31.419Z,8.45
2024-03-08T15:56:07.049Z,8.32
2024-03-08T15:57:41.778Z,9.65
2024-03-08T15:59:15.424Z,8.43
2024-03-08T16:00:49.926Z,8.10
2024-03-08T16:02:24.739Z,9.05
2024-03-08T16:03:59.491Z,8.27
2024-03-08T16:05:32.496Z,9.85
2024-03-08T16:07:07.952Z,9.43
2024-03-08T16:08:41.120Z,9.07
2024-03-08T16:10:15.720Z,9.85
2024-03-08T16:11:49.744Z,10.52
2024-03-08T16:13:24.836Z,10.77
2024-03-08T16:14:58.255Z,9.30
2024-03-08T16:16:33.684Z,11.02
2024-03-08T16:18:08.036Z,9.48
2024-03-08T16:19:42.735Z,10.43
2024-03-08T16:21:16.556Z,10.30
2024-03-08T16:22:54.036Z,9.88
2024-03-08T16:24:28.240Z,9.32
2024-03-08T16:26:01.404Z,9.57
2024-03-08T16:27:35.526Z,10.68
2024-03-08T16:29:09.077Z,10.27
2024-03-08T16:30:48.981Z,10.05
2024-03-08T16:32:22.089Z,9.85
2024-03-08T16:33:56.106Z,10.35
2024-03-08T16:35:29.542Z,10.70
2024-03-08T16:37:04.582Z,10.70
2024-03-08T16:38:40.067Z,10.20
2024-03-08T16:40:16.643Z,9.90
2024-03-08T16:41:52.178Z,9.93
2024-03-08T16:43:25.254Z,9.25
2024-03-08T16:44:59.829Z,10.85
2024-03-08T16:46:35.929Z,10.90
2024-03-08T16:48:12.373Z,10.68
2024-03-08T16:49:46.626Z,10.10
2024-03-08T16:51:20.782Z,9.90
2024-03-08T16:52:56.815Z,10.82
2024-03-08T16:54:43.478Z,10.55
2024-03-08T16:56:25.830Z,10.25
2024-03-08T16:58:00.008Z,10.68
2024-03-08T16:59:33.840Z,12.05
2024-03-08T17:01:08.366Z,11.45
2024-03-08T17:02:41.623Z,11.30
2024-03-08T17:04:19.105Z,10.80
2024-03-08T17:05:55.623Z,11.52
2024-03-08T17:07:33.413Z,11.55
2024-03-08T17:09:12.996Z,10.65
2024-03-08T17:10:47.716Z,11.20
2024-03-08T17:12:21.789Z,11.00
2024-03-08T17:13:55.352Z,12.13
2024-03-08T17:15:30.237Z,10.82
2024-03-08T17:17:06.150Z,10.65
2024-03-08T17:18:38.990Z,10.05
2024-03-08T17:20:16.671Z,12.43
2024-03-08T17:21:50.556Z,11.82
2024-03-08T17:23:24.641Z,11.27
2024-03-08T17:24:57.721Z,10.98
2024-03-08T17:26:33.700Z,12.70
2024-03-08T17:28:09.922Z,11.15
2024-03-08T17:29:45.637Z,11.98
2024-03-08T17:31:22.519Z,11.20
2024-03-08T17:33:00.847Z,11.85
2024-03-08T17:34:36.718Z,11.50
2024-03-08T17:36:12.372Z,12.40
2024-03-08T17:37:48.218Z,11.75
2024-03-08T17:39:23.252Z,12.75
2024-03-08T17:40:56.402Z,11.55
2024-03-08T17:42:32.888Z,11.65
2024-03-08T17:44:05.954Z,11.05
2024-03-08T17:45:42.067Z,10.93
2024-03-08T17:47:16.656Z,12.40
2024-03-08T17:48:50.652Z,12.05
2024-03-08T17:50:25.317Z,12.02
2024-03-08T17:52:03.925Z,13.88
2024-03-08T17:53:37.038Z,12.45
2024-03-08T17:55:14.922Z,11.60
2024-03-08T17:56:47.902Z,13.10
2024-03-08T17:58:23.993Z,11.88
2024-03-08T17:59:57.048Z,11.63
2024-03-08T18:01:33.651Z,12.70
2024-03-08T18:03:09.946Z,11.95
2024-03-08T18:04:46.742Z,12.85
2024-03-08T18:06:19.923Z,12.13
2024-03-08T18:07:54.564Z,11.63
2024-03-08T18:09:31.454Z,12.43
2024-03-08T18:11:05.938Z,11.82
2024-03-08T18:12:39.139Z,12.63
2024-03-08T18:14:15.998Z,11.95
2024-03-08T18:15:49.387Z,12.70
2024-03-08T18:17:24.295Z,11.77
2024-03-08T18:18:57.338Z,12.88
2024-03-08T18:20:33.794Z,12.50
2024-03-08T18:22:09.199Z,10.80
2024-03-08T18:23:45.021Z,12.35
2024-03-08T18:25:21.152Z,11.32
2024-03-08T18:26:55.369Z,13.23
2024-03-08T18:28:29.502Z,11.68
2024-03-08T18:30:06.858Z,12.20
2024-03-08T18:31:39.990Z,12.45
2024-03-08T18:33:15.854Z,12.05
2024-03-08T18:34:51.120Z,12.43
2024-03-08T18:36:25.690Z,12.93
2024-03-08T18:37:59.105Z,12.10
2024-03-08T18:39:33.397Z,12.10
2024-03-08T18:41:06.571Z,13.20
2024-03-08T18:42:41.881Z,13.00
2024-03-08T18:44:15.318Z,12.55
2024-03-08T18:45:51.366Z,13.20
2024-03-08T18:47:24.346Z,12.98
2024-03-08T18:48:59.206Z,12.52
2024-03-08T18:50:33.786Z,11.98
2024-03-08T18:52:07.907Z,13.60
2024-03-08T18:53:42.925Z,14.77
2024-03-08T18:55:18.244Z,12.80
2024-03-08T18:56:52.861Z,12.98
2024-03-08T18:58:39.238Z,12.57
2024-03-08T19:00:22.713Z,14.35
2024-03-08T19:02:00.894Z,14.10
2024-03-08T19:03:35.816Z,12.45
2024-03-08T19:05:16.642Z,12.77
2024-03-08T19:06:52.649Z,10.90
2024-03-08T19:08:27.565Z,12.43
2024-03-08T19:10:00.931Z,13.02
2024-03-08T19:11:35.233Z,13.20
2024-03-08T19:13:10.455Z,13.00
2024-03-08T19:14:44.655Z,13.77
2024-03-08T19:16:19.023Z,13.05
2024-03-08T19:17:56.431Z,13.73
2024-03-08T19:19:29.964Z,13.55
2024-03-08T19:21:04.057Z,13.90
2024-03-08T19:22:38.905Z,13.48
2024-03-08T19:24:13.217Z,13.82
2024-03-08T19:25:46.847Z,12.73
2024-03-08T19:27:20.962Z,13.25
2024-03-08T19:28:55.251Z,11.75
2024-03-08T19:30:30.047Z,11.95
2024-03-08T19:32:04.804Z,12.27
2024-03-08T19:33:41.637Z,12.23
2024-03-08T19:35:19.319Z,12.15
2024-03-08T19:36:54.023Z,13.02
2024-03-08T19:38:32.492Z,13.07
2024-03-08T19:40:14.636Z,12.05
2024-03-08T19:41:48.618Z,13.23
2024-03-08T19:43:22.925Z,15.05
2024-03-08T19:44:56.702Z,12.50
2024-03-08T19:46:35.843Z,13.60
2024-03-08T19:48:17.271Z,13.23
2024-03-08T19:49:53.099Z,13.10
2024-03-08T19:51:27.673Z,13.38
2024-03-08T19:53:05.436Z,13.52
2024-03-08T19:54:40.545Z,14.57
2024-03-08T19:56:13.732Z,12.52
2024-03-08T19:57:50.814Z,12.43
2024-03-08T19:59:25.671Z,13.88
2024-03-08T20:01:00.127Z,15.80
2024-03-08T20:04:06.339Z,13.27
2024-03-08T20:05:44.056Z,14.93
2024-03-08T20:07:18.268Z,12.52
2024-03-08T20:08:52.660Z,13.43
2024-03-08T20:10:26.293Z,14.13
2024-03-08T20:12:00.413Z,12.38
2024-03-08T20:13:35.762Z,13.48
2024-03-08T20:15:11.965Z,13.52
2024-03-08T20:16:45.857Z,13.10
2024-03-08T20:18:20.678Z,13.77
2024-03-08T20:19:54.119Z,14.45
2024-03-08T20:21:29.425Z,15.48
2024-03-08T20:23:05.362Z,12.93
2024-03-08T20:24:39.599Z,13.98
2024-03-08T20:26:16.384Z,14.15
2024-03-08T20:27:52.630Z,13.55
2024-03-08T20:29:28.422Z,12.80
2024-03-08T20:31:02.157Z,12.07
2024-03-08T20:32:36.197Z,13.00
2024-03-08T20:34:10.919Z,12.32